createdAt,value
2022-08-05T00:00:18.489Z,101169.94
2022-08-05T00:02:51.486Z,101166.22
2022-08-05T00:05:27.032Z,101160.59
2022-08-05T00:08:05.610Z,101162.69
2022-08-05T00:10:51.760Z,101163.72
2022-08-05T00:13:18.709Z,101160.63
2022-08-05T00:15:55.227Z,101163.75
2022-08-05T00:18:23.495Z,101171.00
2022-08-05T00:20:50.969Z,101172.47
2022-08-05T00:23:17.395Z,101166.25
2022-08-05T00:26:03.784Z,101162.09
2022-08-05T00:28:30.343Z,101155.25
2022-08-05T00:31:04.197Z,101155.25
2022-08-05T00:34:53.954Z,101150.66
2022-08-05T00:37:11.568Z,101154.19
2022-08-05T00:39:03.876Z,101159.41
2022-08-05T00:41:46.772Z,101166.06
2022-08-05T00:44:17.257Z,101158.19
2022-08-05T00:46:44.982Z,101158.78
2022-08-05T00:49:14.018Z,101149.84
2022-08-05T00:51:51.763Z,101145.09
2022-08-05T00:54:18.931Z,101148.41
2022-08-05T00:56:51.334Z,101154.63
2022-08-05T00:59:18.228Z,101150.91
2022-08-05T01:01:48.583Z,101141.56
2022-08-05T01:04:16.112Z,101134.91
2022-08-05T01:06:47.889Z,101133.25
2022-08-05T01:09:15.405Z,101146.50
2022-08-05T01:11:48.796Z,101153.13
2022-08-05T01:14:27.957Z,101161.84
2022-08-05T01:16:59.940Z,101163.72
2022-08-05T01:19:56.343Z,101180.50
2022-08-05T01:22:30.068Z,101202.03
2022-08-05T01:25:22.180Z,101208.88
2022-08-05T01:27:58.247Z,101217.84
2022-08-05T01:30:33.729Z,101245.34
2022-08-05T01:33:03.526Z,101250.94
2022-08-05T01:35:51.596Z,101242.06
2022-08-05T01:38:24.781Z,101252.47
2022-08-05T01:40:57.310Z,101263.44
2022-08-05T01:43:27.162Z,101280.97
2022-08-05T01:45:56.423Z,101289.84
2022-08-05T01:48:23.813Z,101288.00
2022-08-05T01:50:51.491Z,101259.41
2022-08-05T01:53:54.604Z,101249.72
2022-08-05T01:56:09.035Z,101256.31
2022-08-05T01:58:44.821Z,101263.19
2022-08-05T02:01:13.025Z,101257.16
2022-08-05T02:03:43.654Z,101244.72
2022-08-05T02:06:36.945Z,101175.09
2022-08-05T02:08:58.962Z,101141.47
2022-08-05T02:11:32.898Z,101129.03
2022-08-05T02:14:05.240Z,101144.56
2022-08-05T02:16:34.595Z,101213.56
2022-08-05T02:19:02.715Z,101231.19
2022-08-05T02:21:38.068Z,101229.59
2022-08-05T02:24:14.293Z,101209.97
2022-08-05T02:26:54.531Z,101198.75
2022-08-05T02:29:58.220Z,101181.91
2022-08-05T02:32:12.319Z,101169.28
2022-08-05T02:34:54.657Z,101184.78
2022-08-05T02:37:23.085Z,101196.69
2022-08-05T02:39:51.767Z,101197.91
2022-08-05T02:42:26.037Z,101193.56
2022-08-05T02:44:58.745Z,101203.69
2022-08-05T02:47:26.035Z,101205.41
2022-08-05T02:50:12.927Z,101207.91
2022-08-05T02:52:40.363Z,101216.06
2022-08-05T02:55:10.889Z,101215.19
2022-08-05T02:58:19.949Z,101205.44
2022-08-05T03:00:28.334Z,101188.81
2022-08-05T03:02:57.210Z,101175.09
2022-08-05T03:06:54.783Z,101163.50
2022-08-05T03:08:11.076Z,101154.09
2022-08-05T03:10:37.666Z,101160.53
2022-08-05T03:13:11.242Z,101166.09
2022-08-05T03:15:45.465Z,101167.59
2022-08-05T03:18:12.144Z,101172.13
2022-08-05T03:20:44.596Z,101168.00
2022-08-05T03:23:15.393Z,101172.88
2022-08-05T03:26:03.977Z,101185.31
2022-08-05T03:28:29.727Z,101200.63
2022-08-05T03:30:58.173Z,101191.72
2022-08-05T03:33:24.936Z,101190.41
2022-08-05T03:36:12.008Z,101194.94
2022-08-05T03:38:40.141Z,101194.72
2022-08-05T03:41:10.951Z,101184.16
2022-08-05T03:44:08.956Z,101194.66
2022-08-05T03:46:29.797Z,101197.16
2022-08-05T03:48:58.852Z,101200.09
2022-08-05T03:52:37.065Z,101199.72
2022-08-05T03:55:50.745Z,101202.34
2022-08-05T03:57:18.073Z,101201.50
2022-08-05T03:59:54.894Z,101201.25
2022-08-05T04:02:39.105Z,101195.78
2022-08-05T04:05:10.672Z,101190.69
2022-08-05T04:07:58.277Z,101196.84
2022-08-05T04:10:25.421Z,101196.59
2022-08-05T04:12:54.570Z,101200.31
2022-08-05T04:15:21.249Z,101213.88
2022-08-05T04:17:56.290Z,101212.59
2022-08-05T04:20:26.354Z,101204.22
2022-08-05T04:22:52.700Z,101206.69
2022-08-05T04:25:19.196Z,101212.81
2022-08-05T04:27:56.816Z,101210.25
2022-08-05T04:30:24.844Z,101225.06
2022-08-05T04:32:54.284Z,101213.56
2022-08-05T04:35:20.652Z,101206.44
2022-08-05T04:38:02.976Z,101214.66
2022-08-05T04:40:33.671Z,101217.81
2022-08-05T04:42:59.998Z,101221.06
2022-08-05T04:45:47.890Z,101216.31
2022-08-05T04:48:18.600Z,101227.50
2022-08-05T04:51:03.648Z,101227.22
2022-08-05T04:53:38.792Z,101222.72
2022-08-05T04:56:33.934Z,101203.72
2022-08-05T04:58:52.403Z,101204.94
2022-08-05T05:02:08.159Z,101211.38
2022-08-05T05:04:06.525Z,101217.53
2022-08-05T05:06:35.978Z,101229.16
2022-08-05T05:09:07.552Z,101223.09
2022-08-05T05:11:41.458Z,101223.47
2022-08-05T05:14:28.179Z,101225.72
2022-08-05T05:16:58.132Z,101230.69
2022-08-05T05:19:26.616Z,101225.00
2022-08-05T05:22:22.509Z,101230.28
2022-08-05T05:24:56.886Z,101238.16
2022-08-05T05:27:41.351Z,101248.88
2022-08-05T05:30:29.226Z,101252.91
2022-08-05T05:33:00.701Z,101255.00
2022-08-05T05:35:37.594Z,101256.59
2022-08-05T05:38:05.598Z,101246.50
2022-08-05T05:40:35.265Z,101227.38
2022-08-05T05:43:02.861Z,101248.78
2022-08-05T05:45:29.224Z,101250.41
2022-08-05T05:48:06.781Z,101258.63
2022-08-05T05:50:41.183Z,101261.19
2022-08-05T05:53:21.931Z,101254.69
2022-08-05T05:55:52.236Z,101259.16
2022-08-05T05:58:31.475Z,101243.91
2022-08-05T06:01:02.102Z,101243.19
2022-08-05T06:03:54.161Z,101248.09
2022-08-05T06:06:27.960Z,101254.41
2022-08-05T06:08:57.815Z,101261.81
2022-08-05T06:11:24.268Z,101263.72
2022-08-05T06:13:54.093Z,101261.34
2022-08-05T06:16:29.029Z,101276.38
2022-08-05T06:18:57.481Z,101281.28
2022-08-05T06:21:36.457Z,101283.13
2022-08-05T06:24:04.582Z,101284.31
2022-08-05T06:26:33.921Z,101283.88
2022-08-05T06:29:03.328Z,101277.94
2022-08-05T06:31:30.583Z,101284.91
2022-08-05T06:34:08.045Z,101286.09
2022-08-05T06:36:37.353Z,101289.25
2022-08-05T06:39:20.134Z,101306.56
2022-08-05T06:41:49.366Z,101312.34
2022-08-05T06:44:15.695Z,101308.09
2022-08-05T06:46:44.405Z,101313.72
2022-08-05T06:49:10.775Z,101324.16
2022-08-05T06:51:40.900Z,101321.41
2022-08-05T06:54:07.365Z,101324.97
2022-08-05T06:56:35.228Z,101320.91
2022-08-05T06:59:02.050Z,101312.91
2022-08-05T07:01:32.349Z,101317.34
2022-08-05T07:03:59.487Z,101315.75
2022-08-05T07:06:25.825Z,101318.13
2022-08-05T07:08:56.129Z,101325.41
2022-08-05T07:11:25.753Z,101326.31
2022-08-05T07:13:58.516Z,101317.94
2022-08-05T07:17:56.523Z,101328.50
2022-08-05T07:19:12.305Z,101332.91
2022-08-05T07:21:59.962Z,101344.53
2022-08-05T07:24:28.661Z,101346.69
2022-08-05T07:26:56.345Z,101342.72
2022-08-05T07:30:22.968Z,101346.38
2022-08-05T07:32:08.981Z,101356.78
2022-08-05T07:34:40.468Z,101352.25
2022-08-05T07:37:09.156Z,101360.97
2022-08-05T07:40:26.543Z,101355.84
2022-08-05T07:42:33.608Z,101372.22
2022-08-05T07:45:00.808Z,101369.97
2022-08-05T07:47:27.297Z,101371.03
2022-08-05T07:50:08.979Z,101371.38
2022-08-05T07:52:38.199Z,101372.69
2022-08-05T07:55:15.932Z,101386.22
2022-08-05T07:57:58.840Z,101390.41
2022-08-05T08:00:29.255Z,101389.19
2022-08-05T08:03:15.075Z,101401.47
2022-08-05T08:05:47.267Z,101400.47
2022-08-05T08:08:16.821Z,101403.97
2022-08-05T08:10:48.637Z,101403.94
2022-08-05T08:13:15.670Z,101406.00
2022-08-05T08:16:35.215Z,101401.84
2022-08-05T08:18:34.884Z,101403.97
2022-08-05T08:21:09.825Z,101402.69
2022-08-05T08:24:01.883Z,101401.28
2022-08-05T08:26:31.562Z,101401.59
2022-08-05T08:29:02.255Z,101405.41
2022-08-05T08:31:45.717Z,101402.34
2022-08-05T08:34:12.052Z,101410.47
2022-08-05T08:36:46.389Z,101409.44
2022-08-05T08:39:17.405Z,101419.44
2022-08-05T08:41:51.398Z,101415.94
2022-08-05T08:45:23.785Z,101424.66
2022-08-05T08:47:47.681Z,101429.84
2022-08-05T08:50:22.384Z,101434.63
2022-08-05T08:52:51.766Z,101439.59
2022-08-05T08:56:03.002Z,101441.88
2022-08-05T08:58:08.824Z,101448.75
2022-08-05T09:00:35.401Z,101452.50
2022-08-05T09:03:05.322Z,101454.16
2022-08-05T09:05:38.468Z,101459.75
2022-08-05T09:08:19.505Z,101469.50
2022-08-05T09:10:53.099Z,101481.16
2022-08-05T09:13:21.136Z,101477.63
2022-08-05T09:15:50.066Z,101482.19
2022-08-05T09:18:16.622Z,101477.41
2022-08-05T09:20:44.433Z,101491.53
2022-08-05T09:23:19.017Z,101496.94
2022-08-05T09:26:03.156Z,101497.56
2022-08-05T09:28:35.139Z,101498.81
2022-08-05T09:31:02.381Z,101492.38
2022-08-05T09:33:49.292Z,101498.19
2022-08-05T09:36:17.648Z,101504.41
2022-08-05T09:38:56.411Z,101514.59
2022-08-05T09:41:23.766Z,101511.28
2022-08-05T09:43:51.820Z,101521.47
2022-08-05T09:46:27.468Z,101513.53
2022-08-05T09:49:07.024Z,101514.38
2022-08-05T09:51:41.778Z,101516.03
2022-08-05T09:54:08.481Z,101515.41
2022-08-05T09:56:36.677Z,101502.13
2022-08-05T09:59:05.113Z,101508.97
2022-08-05T10:01:33.071Z,101507.94
2022-08-05T10:04:00.686Z,101510.84
2022-08-05T10:06:27.278Z,101505.66
2022-08-05T10:08:55.671Z,101518.34
2022-08-05T10:11:22.802Z,101515.59
2022-08-05T10:13:49.528Z,101522.25
2022-08-05T10:16:29.243Z,101520.75
2022-08-05T10:18:56.503Z,101520.31
2022-08-05T10:21:23.541Z,101527.13
2022-08-05T10:23:59.824Z,101527.06
2022-08-05T10:26:31.712Z,101527.06
2022-08-05T10:29:00.277Z,101527.66
2022-08-05T10:32:53.603Z,101516.69
2022-08-05T10:34:15.109Z,101518.03
2022-08-05T10:36:43.755Z,101523.63
2022-08-05T10:39:24.611Z,101524.44
2022-08-05T10:42:02.495Z,101532.50
2022-08-05T10:44:31.192Z,101526.34
2022-08-05T10:46:58.950Z,101533.59
2022-08-05T10:49:27.198Z,101530.06
2022-08-05T10:52:00.786Z,101539.91
2022-08-05T10:54:56.213Z,101552.25
2022-08-05T10:57:26.463Z,101557.47
2022-08-05T11:00:09.987Z,101557.75
2022-08-05T11:03:23.042Z,101556.34
2022-08-05T11:06:03.943Z,101555.13
2022-08-05T11:08:36.658Z,101565.13
2022-08-05T11:11:23.354Z,101561.34
2022-08-05T11:14:00.652Z,101552.22
2022-08-05T11:16:33.952Z,101555.94
2022-08-05T11:20:10.613Z,101559.66
2022-08-05T11:22:32.977Z,101546.94
2022-08-05T11:26:05.450Z,101562.91
2022-08-05T11:28:19.439Z,101566.41
2022-08-05T11:31:05.850Z,101566.41
2022-08-05T11:33:46.553Z,101570.44
2022-08-05T11:36:15.504Z,101565.47
2022-08-05T11:39:01.255Z,101565.44
2022-08-05T11:41:54.505Z,101563.31
2022-08-05T11:44:40.953Z,101568.22
2022-08-05T11:47:11.727Z,101565.97
2022-08-05T11:49:51.029Z,101571.91
2022-08-05T11:52:23.027Z,101563.31
2022-08-05T11:54:56.387Z,101561.63
2022-08-05T11:57:27.599Z,101571.44
2022-08-05T11:59:57.115Z,101568.81
2022-08-05T12:02:31.779Z,101576.28
2022-08-05T12:05:00.746Z,101573.31
2022-08-05T12:08:07.946Z,101569.75
2022-08-05T12:10:21.763Z,101582.38
2022-08-05T12:12:59.585Z,101591.00
2022-08-05T12:15:37.864Z,101596.97
2022-08-05T12:18:10.650Z,101592.97
2022-08-05T12:20:39.618Z,101603.72
2022-08-05T12:23:08.091Z,101602.88
2022-08-05T12:25:48.495Z,101608.97
2022-08-05T12:28:31.003Z,101616.44
2022-08-05T12:30:57.806Z,101618.72
2022-08-05T12:33:36.554Z,101626.16
2022-08-05T12:36:08.328Z,101628.03
2022-08-05T12:38:36.142Z,101627.91
2022-08-05T12:41:03.250Z,101626.31
2022-08-05T12:43:32.184Z,101631.75
2022-08-05T12:45:58.762Z,101640.19
2022-08-05T12:48:27.322Z,101639.84
2022-08-05T12:52:10.178Z,101638.00
2022-08-05T12:54:00.010Z,101647.53
2022-08-05T12:56:35.140Z,101656.13
2022-08-05T12:59:21.006Z,101664.84
2022-08-05T13:02:03.860Z,101668.91
2022-08-05T13:04:33.456Z,101664.28
2022-08-05T13:07:10.542Z,101660.88
2022-08-05T13:09:45.897Z,101672.56
2022-08-05T13:12:16.990Z,101662.22
2022-08-05T13:14:44.958Z,101663.88
2022-08-05T13:17:20.605Z,101678.66
2022-08-05T13:19:58.994Z,101679.22
2022-08-05T13:22:28.249Z,101680.22
2022-08-05T13:24:58.096Z,101688.44
2022-08-05T13:27:37.765Z,101682.72
2022-08-05T13:30:35.314Z,101685.63
2022-08-05T13:32:52.540Z,101688.97
2022-08-05T13:35:42.656Z,101691.47
2022-08-05T13:38:20.348Z,101698.75
2022-08-05T13:40:56.990Z,101699.16
2022-08-05T13:43:23.384Z,101696.56
2022-08-05T13:46:11.456Z,101698.22
2022-08-05T13:48:58.870Z,101712.81
2022-08-05T13:51:36.427Z,101715.16
2022-08-05T13:54:12.844Z,101710.56
2022-08-05T13:56:40.070Z,101711.09
2022-08-05T13:59:20.061Z,101714.06
2022-08-05T14:01:58.016Z,101716.69
2022-08-05T14:04:26.502Z,101714.19
2022-08-05T14:06:58.610Z,101724.81
2022-08-05T14:09:42.959Z,101724.59
2022-08-05T14:12:17.678Z,101722.88
2022-08-05T14:14:45.269Z,101717.59
2022-08-05T14:17:16.903Z,101719.84
2022-08-05T14:19:56.108Z,101729.47
2022-08-05T14:22:23.791Z,101736.81
2022-08-05T14:24:58.216Z,101741.06
2022-08-05T14:27:24.534Z,101748.13
2022-08-05T14:29:54.771Z,101749.03
2022-08-05T14:32:27.018Z,101743.63
2022-08-05T14:34:54.724Z,101745.34
2022-08-05T14:37:23.442Z,101752.00
2022-08-05T14:40:13.940Z,101749.97
2022-08-05T14:42:41.003Z,101745.19
2022-08-05T14:45:08.949Z,101750.19
2022-08-05T14:48:03.747Z,101743.78
2022-08-05T14:50:21.779Z,101752.16
2022-08-05T14:52:56.899Z,101750.44
2022-08-05T14:55:38.537Z,101751.72
2022-08-05T14:58:11.838Z,101755.81
2022-08-05T15:00:59.592Z,101749.66
2022-08-05T15:03:26.777Z,101744.25
2022-08-05T15:06:07.979Z,101743.31
2022-08-05T15:09:01.123Z,101756.44
2022-08-05T15:11:53.164Z,101758.38
2022-08-05T15:14:20.018Z,101759.03
2022-08-05T15:16:46.719Z,101747.16
2022-08-05T15:19:23.482Z,101762.34
2022-08-05T15:21:50.419Z,101759.88
2022-08-05T15:24:16.760Z,101759.25
2022-08-05T15:26:44.448Z,101755.13
2022-08-05T15:29:10.765Z,101759.72
2022-08-05T15:31:37.111Z,101756.13
2022-08-05T15:34:19.452Z,101754.25
2022-08-05T15:36:49.764Z,101763.63
2022-08-05T15:41:03.537Z,101766.75
2022-08-05T15:42:54.187Z,101766.13
2022-08-05T15:44:50.252Z,101770.41
2022-08-05T15:47:16.682Z,101766.91
2022-08-05T15:49:55.959Z,101766.28
2022-08-05T15:52:52.107Z,101771.97
2022-08-05T15:55:10.562Z,101777.41
2022-08-05T15:57:45.143Z,101780.31
2022-08-05T16:00:11.974Z,101773.66
2022-08-05T16:02:38.415Z,101776.75
2022-08-05T16:05:05.364Z,101781.56
2022-08-05T16:07:36.014Z,101788.03
2022-08-05T16:10:02.435Z,101788.91
2022-08-05T16:12:28.772Z,101795.59
2022-08-05T16:14:56.457Z,101783.09
2022-08-05T16:17:22.795Z,101798.31
2022-08-05T16:20:05.159Z,101801.00
2022-08-05T16:22:37.668Z,101796.66
2022-08-05T16:25:07.920Z,101798.47
2022-08-05T16:28:00.134Z,101798.09
2022-08-05T16:30:26.710Z,101792.66
2022-08-05T16:32:55.594Z,101800.78
2022-08-05T16:35:27.922Z,101807.63
2022-08-05T16:38:16.198Z,101805.97
2022-08-05T16:40:52.285Z,101810.78
2022-08-05T16:43:23.461Z,101811.41
2022-08-05T16:46:04.678Z,101817.25
2022-08-05T16:48:35.390Z,101815.81
2022-08-05T16:51:02.061Z,101836.41
2022-08-05T16:53:32.189Z,101842.63
2022-08-05T16:55:59.002Z,101836.78
2022-08-05T16:58:25.863Z,101839.94
2022-08-05T17:00:54.076Z,101830.59
2022-08-05T17:03:21.440Z,101833.91
2022-08-05T17:05:53.733Z,101844.53
2022-08-05T17:08:36.226Z,101849.72
2022-08-05T17:11:08.881Z,101854.94
2022-08-05T17:13:41.387Z,101842.03
2022-08-05T17:16:28.079Z,101849.28
2022-08-05T17:18:56.485Z,101861.16
2022-08-05T17:21:23.509Z,101863.06
2022-08-05T17:24:04.502Z,101862.56
2022-08-05T17:26:36.752Z,101871.66
2022-08-05T17:29:07.539Z,101878.28
2022-08-05T17:31:56.505Z,101881.13
2022-08-05T17:34:29.803Z,101886.31
2022-08-05T17:36:58.916Z,101880.47
2022-08-05T17:39:33.976Z,101879.84
2022-08-05T17:42:17.860Z,101905.81
2022-08-05T17:44:50.727Z,101901.31
2022-08-05T17:47:22.069Z,101912.13
2022-08-05T17:50:00.510Z,101908.94
2022-08-05T17:52:31.297Z,101910.72
2022-08-05T17:54:57.790Z,101909.78
2022-08-05T17:57:24.473Z,101909.84
2022-08-05T18:00:03.333Z,101919.25
2022-08-05T18:02:32.800Z,101928.00
2022-08-05T18:04:59.152Z,101928.91
2022-08-05T18:07:40.884Z,101927.13
2022-08-05T18:10:10.371Z,101935.84
2022-08-05T18:12:37.466Z,101939.41
2022-08-05T18:15:04.891Z,101940.78
2022-08-05T18:18:00.668Z,101943.81
2022-08-05T18:20:19.110Z,101953.06
2022-08-05T18:22:54.145Z,101958.91
2022-08-05T18:25:21.152Z,101959.91
2022-08-05T18:27:52.022Z,101967.34
2022-08-05T18:30:19.160Z,101973.50
2022-08-05T18:32:53.076Z,101967.91
2022-08-05T18:35:20.166Z,101979.38
2022-08-05T18:38:06.500Z,101975.59
2022-08-05T18:41:55.276Z,101980.59
2022-08-05T18:43:20.769Z,101986.44
2022-08-05T18:45:49.540Z,101984.00
2022-08-05T18:48:31.165Z,101985.50
2022-08-05T18:51:01.798Z,101986.44
2022-08-05T18:53:50.321Z,101994.78
2022-08-05T18:56:16.966Z,101993.69
2022-08-05T18:58:52.892Z,102002.03
2022-08-05T19:01:21.444Z,102010.16
2022-08-05T19:04:12.509Z,102004.28
2022-08-05T19:06:45.396Z,102010.97
2022-08-05T19:09:11.949Z,102012.88
2022-08-05T19:11:59.848Z,102017.34
2022-08-05T19:14:59.209Z,102024.84
2022-08-05T19:17:11.447Z,102042.25
2022-08-05T19:19:44.154Z,102032.19
2022-08-05T19:22:17.117Z,102045.13
2022-08-05T19:24:54.203Z,102044.91
2022-08-05T19:27:22.989Z,102050.81
2022-08-05T19:29:49.499Z,102049.50
2022-08-05T19:32:15.913Z,102048.88
2022-08-05T19:34:54.500Z,102059.03
2022-08-05T19:37:22.126Z,102063.59
2022-08-05T19:39:56.686Z,102063.81
2022-08-05T19:42:35.320Z,102073.72
2022-08-05T19:45:02.356Z,102069.53
2022-08-05T19:47:32.121Z,102082.00
2022-08-05T19:50:01.971Z,102074.09
2022-08-05T19:52:31.735Z,102080.34
2022-08-05T19:55:00.442Z,102086.56
2022-08-05T19:58:02.701Z,102095.47
2022-08-05T20:00:20.819Z,102098.50
2022-08-05T20:02:47.287Z,102098.34
2022-08-05T20:05:24.637Z,102100.53
2022-08-05T20:07:54.994Z,102097.88
2022-08-05T20:10:25.131Z,102105.91
2022-08-05T20:12:51.566Z,102105.88
2022-08-05T20:15:48.452Z,102113.47
2022-08-05T20:18:10.990Z,102117.16
2022-08-05T20:20:56.051Z,102110.75
2022-08-05T20:23:23.076Z,102110.91
2022-08-05T20:25:49.435Z,102114.44
2022-08-05T20:28:19.004Z,102120.91
2022-08-05T20:30:45.345Z,102129.50
2022-08-05T20:33:14.267Z,102126.84
2022-08-05T20:35:45.658Z,102135.84
2022-08-05T20:38:14.407Z,102122.38
2022-08-05T20:40:50.340Z,102133.38
2022-08-05T20:43:17.178Z,102132.38
2022-08-05T20:46:03.477Z,102132.13
2022-08-05T20:48:29.821Z,102139.47
2022-08-05T20:50:56.138Z,102132.59
2022-08-05T20:53:36.936Z,102132.78
2022-08-05T20:56:09.305Z,102149.13
2022-08-05T20:58:36.123Z,102142.34
2022-08-05T21:01:03.622Z,102155.16
2022-08-05T21:03:30.659Z,102142.94
2022-08-05T21:06:01.088Z,102145.41
2022-08-05T21:08:42.060Z,102151.88
2022-08-05T21:11:12.054Z,102156.13
2022-08-05T21:13:47.526Z,102155.53
2022-08-05T21:16:22.282Z,102152.31
2022-08-05T21:18:55.422Z,102152.13
2022-08-05T21:21:24.330Z,102154.56
2022-08-05T21:23:52.210Z,102153.72
2022-08-05T21:26:18.537Z,102157.72
2022-08-05T21:28:50.634Z,102157.56
2022-08-05T21:31:17.520Z,102166.34
2022-08-05T21:33:43.870Z,102176.69
2022-08-05T21:36:14.389Z,102173.97
2022-08-05T21:38:55.526Z,102179.59
2022-08-05T21:41:21.923Z,102179.91
2022-08-05T21:43:50.972Z,102179.34
2022-08-05T21:46:30.403Z,102191.94
2022-08-05T21:48:56.949Z,102189.84
2022-08-05T21:52:16.353Z,102182.09
2022-08-05T21:54:13.995Z,102188.94
2022-08-05T21:56:44.494Z,102189.63
2022-08-05T21:59:22.509Z,102189.50
2022-08-05T22:01:51.306Z,102188.66
2022-08-05T22:04:21.044Z,102190.13
2022-08-05T22:06:51.948Z,102189.56
2022-08-05T22:09:21.563Z,102191.56
2022-08-05T22:11:48.277Z,102194.41
2022-08-05T22:14:34.695Z,102201.59
2022-08-05T22:17:04.866Z,102200.03
2022-08-05T22:20:00.503Z,102191.75
2022-08-05T22:22:26.820Z,102202.34
2022-08-05T22:24:56.132Z,102204.66
2022-08-05T22:27:22.544Z,102201.44
2022-08-05T22:29:48.866Z,102212.50
2022-08-05T22:32:20.639Z,102219.03
2022-08-05T22:34:49.357Z,102215.94
2022-08-05T22:37:15.795Z,102218.03
2022-08-05T22:39:42.189Z,102219.03
2022-08-05T22:42:15.407Z,102223.72
2022-08-05T22:44:56.311Z,102225.25
2022-08-05T22:47:29.651Z,102222.47
2022-08-05T22:50:20.636Z,102224.06
2022-08-05T22:52:43.227Z,102223.34
2022-08-05T22:55:18.928Z,102226.31
2022-08-05T22:57:49.028Z,102235.63
2022-08-05T23:00:18.315Z,102239.25
2022-08-05T23:02:47.490Z,102241.41
2022-08-05T23:05:14.114Z,102244.75
2022-08-05T23:07:48.211Z,102252.78
2022-08-05T23:10:15.952Z,102250.81
2022-08-05T23:12:46.149Z,102256.28
2022-08-05T23:15:13.874Z,102256.28
2022-08-05T23:18:00.510Z,102265.59
2022-08-05T23:20:29.441Z,102257.84
2022-08-05T23:22:56.529Z,102263.31
2022-08-05T23:25:52.254Z,102271.19
2022-08-05T23:28:11.250Z,102270.88
2022-08-05T23:30:43.778Z,102274.84
2022-08-05T23:33:22.057Z,102278.88
2022-08-05T23:35:52.660Z,102277.31
2022-08-05T23:38:22.650Z,102279.53
2022-08-05T23:40:50.258Z,102280.66
2022-08-05T23:43:24.758Z,102279.53
2022-08-05T23:46:04.939Z,102278.56
2022-08-05T23:48:46.997Z,102278.69
2022-08-05T23:51:28.012Z,102279.22
2022-08-05T23:54:01.225Z,102276.69
2022-08-05T23:56:27.776Z,102278.09
2022-08-05T23:58:54.147Z,102282.69
